Terminal Aerodrome Forecast
Issued by NWS

Home | Current Version | Previous Version | Text Only | Print | Product List | Glossary On
Versions: 1 2 3 4 5 6 7 8 9 10 11 12 13
000
FTUS45 KRIW 211700
TAFRKS
TAF
KRKS 211720Z 2118/2218 25030G38KT 5SM -SN BLSN BKN015 OVC030
     FM220300 28024G32KT 2SM -SHSN SCT008 OVC014
     FM220800 28020KT P6SM VCSH SCT018 BKN040=

USA.gov is the U.S. government's official web portal to all federal, state and local government web resources and services.